sensor_id;sensor_type;location;lat;lon;timestamp;pressure;altitude;pressure_sealevel;temperature;humidity
55010;BME280;40903;51.638;7.528;2023-02-14T00:01:06;102966.19;;;2.08;100.00
55010;BME280;40903;51.638;7.528;2023-02-14T00:03:32;102971.13;;;2.05;100.00
55010;BME280;40903;51.638;7.528;2023-02-14T00:05:57;102967.09;;;2.01;100.00
55010;BME280;40903;51.638;7.528;2023-02-14T00:08:22;102962.94;;;1.98;100.00
55010;BME280;40903;51.638;7.528;2023-02-14T00:10:47;102965.78;;;1.97;100.00
55010;BME280;40903;51.638;7.528;2023-02-14T00:13:13;102964.50;;;1.93;100.00
55010;BME280;40903;51.638;7.528;2023-02-14T00:15:38;102961.31;;;1.89;100.00
55010;BME280;40903;51.638;7.528;2023-02-14T00:18:03;102965.19;;;1.87;100.00
55010;BME280;40903;51.638;7.528;2023-02-14T00:20:30;102965.56;;;1.84;100.00
55010;BME280;40903;51.638;7.528;2023-02-14T00:22:55;102962.03;;;1.84;100.00
55010;BME280;40903;51.638;7.528;2023-02-14T00:25:20;102964.25;;;1.80;100.00
55010;BME280;40903;51.638;7.528;2023-02-14T00:27:46;102961.91;;;1.77;100.00
55010;BME280;40903;51.638;7.528;2023-02-14T00:30:12;102959.91;;;1.71;100.00
55010;BME280;40903;51.638;7.528;2023-02-14T00:32:38;102970.00;;;1.69;100.00
55010;BME280;40903;51.638;7.528;2023-02-14T00:35:03;102972.41;;;1.64;100.00
55010;BME280;40903;51.638;7.528;2023-02-14T00:37:29;102970.09;;;1.61;100.00
55010;BME280;40903;51.638;7.528;2023-02-14T00:39:54;102970.44;;;1.58;100.00
55010;BME280;40903;51.638;7.528;2023-02-14T00:42:19;102967.06;;;1.56;100.00
55010;BME280;40903;51.638;7.528;2023-02-14T00:44:44;102962.91;;;1.54;100.00
55010;BME280;40903;51.638;7.528;2023-02-14T00:47:10;102973.16;;;1.50;100.00
55010;BME280;40903;51.638;7.528;2023-02-14T00:49:35;102964.44;;;1.48;100.00
55010;BME280;40903;51.638;7.528;2023-02-14T00:52:00;102972.66;;;1.47;100.00
55010;BME280;40903;51.638;7.528;2023-02-14T00:54:25;102967.50;;;1.45;100.00
55010;BME280;40903;51.638;7.528;2023-02-14T00:56:51;102969.53;;;1.43;100.00
55010;BME280;40903;51.638;7.528;2023-02-14T00:59:16;102969.84;;;1.40;100.00
55010;BME280;40903;51.638;7.528;2023-02-14T01:01:41;102968.38;;;1.38;100.00
55010;BME280;40903;51.638;7.528;2023-02-14T01:04:06;102974.41;;;1.40;100.00
55010;BME280;40903;51.638;7.528;2023-02-14T01:06:32;102979.78;;;1.40;100.00
55010;BME280;40903;51.638;7.528;2023-02-14T01:08:57;102973.53;;;1.39;100.00
55010;BME280;40903;51.638;7.528;2023-02-14T01:11:22;102969.19;;;1.38;100.00
55010;BME280;40903;51.638;7.528;2023-02-14T01:13:48;102971.06;;;1.38;100.00
55010;BME280;40903;51.638;7.528;2023-02-14T01:16:15;102978.25;;;1.37;100.00
55010;BME280;40903;51.638;7.528;2023-02-14T01:18:40;102965.84;;;1.36;100.00
55010;BME280;40903;51.638;7.528;2023-02-14T01:21:13;102976.59;;;1.36;100.00
55010;BME280;40903;51.638;7.528;2023-02-14T01:23:39;102974.41;;;1.40;100.00
55010;BME280;40903;51.638;7.528;2023-02-14T01:26:07;102975.06;;;1.42;100.00
55010;BME280;40903;51.638;7.528;2023-02-14T01:28:32;102976.56;;;1.44;100.00
55010;BME280;40903;51.638;7.528;2023-02-14T01:31:04;102978.91;;;1.47;100.00
55010;BME280;40903;51.638;7.528;2023-02-14T01:33:29;102974.84;;;1.51;100.00
55010;BME280;40903;51.638;7.528;2023-02-14T01:35:55;102972.81;;;1.53;100.00
55010;BME280;40903;51.638;7.528;2023-02-14T01:38:20;102971.78;;;1.54;100.00
55010;BME280;40903;51.638;7.528;2023-02-14T01:40:45;102970.78;;;1.55;100.00
55010;BME280;40903;51.638;7.528;2023-02-14T01:43:13;102966.41;;;1.54;100.00
55010;BME280;40903;51.638;7.528;2023-02-14T01:45:39;102972.16;;;1.51;100.00
55010;BME280;40903;51.638;7.528;2023-02-14T01:48:04;102967.78;;;1.50;100.00
55010;BME280;40903;51.638;7.528;2023-02-14T01:50:34;102972.31;;;1.50;100.00
55010;BME280;40903;51.638;7.528;2023-02-14T01:55:27;102970.19;;;1.45;100.00
55010;BME280;40903;51.638;7.528;2023-02-14T01:57:55;102967.81;;;1.42;100.00
55010;BME280;40903;51.638;7.528;2023-02-14T02:00:23;102965.47;;;1.39;100.00
55010;BME280;40903;51.638;7.528;2023-02-14T02:03:07;102961.31;;;1.37;100.00
55010;BME280;40903;51.638;7.528;2023-02-14T02:05:32;102960.81;;;1.33;100.00
55010;BME280;40903;51.638;7.528;2023-02-14T02:07:58;102956.63;;;1.31;100.00
55010;BME280;40903;51.638;7.528;2023-02-14T02:10:24;102951.44;;;1.29;100.00
55010;BME280;40903;51.638;7.528;2023-02-14T02:12:50;102949.09;;;1.26;100.00
55010;BME280;40903;51.638;7.528;2023-02-14T02:15:16;102944.91;;;1.24;100.00
55010;BME280;40903;51.638;7.528;2023-02-14T02:17:51;102940.88;;;1.20;100.00
55010;BME280;40903;51.638;7.528;2023-02-14T02:36:16;102941.50;;;0.99;100.00
55010;BME280;40903;51.638;7.528;2023-02-14T02:38:53;102945.34;;;0.97;100.00
55010;BME280;40903;51.638;7.528;2023-02-14T02:41:22;102937.47;;;0.95;100.00
55010;BME280;40903;51.638;7.528;2023-02-14T02:43:53;102937.66;;;0.94;100.00
55010;BME280;40903;51.638;7.528;2023-02-14T02:46:20;102938.66;;;0.93;100.00
55010;BME280;40903;51.638;7.528;2023-02-14T02:51:48;102936.16;;;0.91;100.00
55010;BME280;40903;51.638;7.528;2023-02-14T02:54:35;102937.16;;;0.90;100.00
55010;BME280;40903;51.638;7.528;2023-02-14T02:57:04;102934.63;;;0.89;100.00
55010;BME280;40903;51.638;7.528;2023-02-14T02:59:35;102931.28;;;0.87;100.00
55010;BME280;40903;51.638;7.528;2023-02-14T03:02:19;102933.16;;;0.86;100.00
55010;BME280;40903;51.638;7.528;2023-02-14T03:04:48;102932.31;;;0.86;100.00
55010;BME280;40903;51.638;7.528;2023-02-14T03:07:18;102927.94;;;0.85;100.00
55010;BME280;40903;51.638;7.528;2023-02-14T03:09:59;102934.47;;;0.82;100.00
55010;BME280;40903;51.638;7.528;2023-02-14T03:12:35;102932.00;;;0.81;100.00
55010;BME280;40903;51.638;7.528;2023-02-14T03:17:42;102919.38;;;0.81;100.00
55010;BME280;40903;51.638;7.528;2023-02-14T03:20:22;102924.28;;;0.78;100.00
55010;BME280;40903;51.638;7.528;2023-02-14T03:22:50;102922.63;;;0.77;100.00
55010;BME280;40903;51.638;7.528;2023-02-14T03:25:27;102922.13;;;0.73;100.00
55010;BME280;40903;51.638;7.528;2023-02-14T03:28:04;102922.28;;;0.72;100.00
55010;BME280;40903;51.638;7.528;2023-02-14T03:30:33;102921.63;;;0.70;100.00
55010;BME280;40903;51.638;7.528;2023-02-14T03:33:07;102914.72;;;0.67;100.00
55010;BME280;40903;51.638;7.528;2023-02-14T03:35:44;102921.31;;;0.65;100.00
55010;BME280;40903;51.638;7.528;2023-02-14T03:38:18;102914.41;;;0.62;100.00
55010;BME280;40903;51.638;7.528;2023-02-14T03:40:59;102922.47;;;0.62;100.00
55010;BME280;40903;51.638;7.528;2023-02-14T03:43:33;102911.22;;;0.59;100.00
55010;BME280;40903;51.638;7.528;2023-02-14T03:46:10;102913.25;;;0.57;100.00
55010;BME280;40903;51.638;7.528;2023-02-14T03:48:38;102914.47;;;0.54;100.00
55010;BME280;40903;51.638;7.528;2023-02-14T03:51:04;102920.84;;;0.53;100.00
55010;BME280;40903;51.638;7.528;2023-02-14T03:53:32;102918.47;;;0.50;100.00
55010;BME280;40903;51.638;7.528;2023-02-14T03:56:05;102901.03;;;0.46;100.00
55010;BME280;40903;51.638;7.528;2023-02-14T03:58:39;102909.25;;;0.45;100.00
55010;BME280;40903;51.638;7.528;2023-02-14T04:01:07;102910.44;;;0.42;100.00
55010;BME280;40903;51.638;7.528;2023-02-14T04:03:34;102913.47;;;0.39;100.00
55010;BME280;40903;51.638;7.528;2023-02-14T04:06:03;102910.97;;;0.38;100.00
55010;BME280;40903;51.638;7.528;2023-02-14T04:08:28;102912.78;;;0.37;100.00
55010;BME280;40903;51.638;7.528;2023-02-14T04:10:54;102913.63;;;0.38;100.00
55010;BME280;40903;51.638;7.528;2023-02-14T04:13:20;102907.78;;;0.34;100.00
55010;BME280;40903;51.638;7.528;2023-02-14T04:15:46;102913.13;;;0.34;100.00
55010;BME280;40903;51.638;7.528;2023-02-14T04:18:11;102907.78;;;0.34;100.00
55010;BME280;40903;51.638;7.528;2023-02-14T04:20:55;102904.41;;;0.32;100.00
55010;BME280;40903;51.638;7.528;2023-02-14T04:23:20;102907.28;;;0.31;100.00
55010;BME280;40903;51.638;7.528;2023-02-14T04:25:45;102909.63;;;0.34;100.00
55010;BME280;40903;51.638;7.528;2023-02-14T04:28:11;102905.44;;;0.31;100.00
55010;BME280;40903;51.638;7.528;2023-02-14T04:30:36;102908.28;;;0.30;100.00
55010;BME280;40903;51.638;7.528;2023-02-14T04:33:02;102910.13;;;0.29;100.00
55010;BME280;40903;51.638;7.528;2023-02-14T04:35:27;102898.56;;;0.29;100.00
55010;BME280;40903;51.638;7.528;2023-02-14T04:37:52;102901.06;;;0.30;100.00
55010;BME280;40903;51.638;7.528;2023-02-14T04:40:17;102895.72;;;0.30;100.00
55010;BME280;40903;51.638;7.528;2023-02-14T04:42:43;102893.19;;;0.29;100.00
55010;BME280;40903;51.638;7.528;2023-02-14T04:45:09;102887.81;;;0.29;100.00
55010;BME280;40903;51.638;7.528;2023-02-14T04:47:34;102882.81;;;0.26;100.00
55010;BME280;40903;51.638;7.528;2023-02-14T04:49:59;102880.31;;;0.24;100.00
55010;BME280;40903;51.638;7.528;2023-02-14T04:52:24;102875.94;;;0.23;100.00
55010;BME280;40903;51.638;7.528;2023-02-14T04:54:50;102872.41;;;0.23;100.00
55010;BME280;40903;51.638;7.528;2023-02-14T04:57:15;102876.09;;;0.22;100.00
55010;BME280;40903;51.638;7.528;2023-02-14T04:59:40;102869.06;;;0.21;100.00
55010;BME280;40903;51.638;7.528;2023-02-14T05:02:05;102863.72;;;0.21;100.00
55010;BME280;40903;51.638;7.528;2023-02-14T05:04:30;102864.72;;;0.20;100.00
55010;BME280;40903;51.638;7.528;2023-02-14T05:06:56;102866.53;;;0.19;100.00
55010;BME280;40903;51.638;7.528;2023-02-14T05:09:21;102859.50;;;0.18;100.00
55010;BME280;40903;51.638;7.528;2023-02-14T05:11:46;102860.38;;;0.19;100.00
55010;BME280;40903;51.638;7.528;2023-02-14T05:14:11;102859.50;;;0.18;100.00
55010;BME280;40903;51.638;7.528;2023-02-14T05:16:37;102865.22;;;0.15;100.00
55010;BME280;40903;51.638;7.528;2023-02-14T05:19:03;102859.00;;;0.15;100.00
55010;BME280;40903;51.638;7.528;2023-02-14T05:21:28;102859.19;;;0.13;100.00
55010;BME280;40903;51.638;7.528;2023-02-14T05:23:56;102858.53;;;0.11;100.00
55010;BME280;40903;51.638;7.528;2023-02-14T05:26:22;102858.53;;;0.11;100.00
55010;BME280;40903;51.638;7.528;2023-02-14T05:28:47;102856.00;;;0.10;100.00
55010;BME280;40903;51.638;7.528;2023-02-14T05:31:12;102853.50;;;0.08;100.00
55010;BME280;40903;51.638;7.528;2023-02-14T05:33:37;102851.16;;;0.05;100.00
55010;BME280;40903;51.638;7.528;2023-02-14T05:36:03;102847.81;;;0.03;100.00
55010;BME280;40903;51.638;7.528;2023-02-14T05:38:28;102855.03;;;0.03;100.00
55010;BME280;40903;51.638;7.528;2023-02-14T05:40:54;102854.19;;;0.02;100.00
55010;BME280;40903;51.638;7.528;2023-02-14T05:43:19;102849.81;;;0.01;100.00
55010;BME280;40903;51.638;7.528;2023-02-14T05:45:44;102849.16;;;-0.01;100.00
55010;BME280;40903;51.638;7.528;2023-02-14T05:48:10;102854.00;;;-0.04;100.00
55010;BME280;40903;51.638;7.528;2023-02-14T05:50:35;102855.03;;;-0.05;100.00
55010;BME280;40903;51.638;7.528;2023-02-14T05:53:00;102856.88;;;-0.05;100.00
55010;BME280;40903;51.638;7.528;2023-02-14T05:55:26;102859.72;;;-0.07;100.00
55010;BME280;40903;51.638;7.528;2023-02-14T05:57:51;102859.88;;;-0.08;100.00
55010;BME280;40903;51.638;7.528;2023-02-14T06:00:16;102860.88;;;-0.09;100.00
55010;BME280;40903;51.638;7.528;2023-02-14T06:02:41;102861.22;;;-0.12;100.00
55010;BME280;40903;51.638;7.528;2023-02-14T06:05:07;102861.22;;;-0.12;100.00
55010;BME280;40903;51.638;7.528;2023-02-14T06:07:32;102861.56;;;-0.15;100.00
55010;BME280;40903;51.638;7.528;2023-02-14T06:09:57;102860.91;;;-0.17;100.00
55010;BME280;40903;51.638;7.528;2023-02-14T06:12:23;102858.22;;;-0.17;100.00
55010;BME280;40903;51.638;7.528;2023-02-14T06:14:48;102867.28;;;-0.18;100.00
55010;BME280;40903;51.638;7.528;2023-02-14T06:17:13;102865.59;;;-0.19;100.00
55010;BME280;40903;51.638;7.528;2023-02-14T06:19:38;102860.41;;;-0.21;100.00
55010;BME280;40903;51.638;7.528;2023-02-14T06:22:03;102874.66;;;-0.20;100.00
55010;BME280;40903;51.638;7.528;2023-02-14T06:24:29;102866.75;;;-0.22;100.00
55010;BME280;40903;51.638;7.528;2023-02-14T06:26:54;102870.44;;;-0.23;100.00
55010;BME280;40903;51.638;7.528;2023-02-14T06:29:19;102874.97;;;-0.23;100.00
55010;BME280;40903;51.638;7.528;2023-02-14T06:31:44;102873.47;;;-0.26;100.00
55010;BME280;40903;51.638;7.528;2023-02-14T06:34:10;102879.00;;;-0.27;100.00
55010;BME280;40903;51.638;7.528;2023-02-14T06:36:35;102883.53;;;-0.28;100.00
55010;BME280;40903;51.638;7.528;2023-02-14T06:39:00;102886.03;;;-0.26;100.00
55010;BME280;40903;51.638;7.528;2023-02-14T06:41:25;102889.72;;;-0.27;100.00
55010;BME280;40903;51.638;7.528;2023-02-14T06:43:50;102892.41;;;-0.27;100.00
55010;BME280;40903;51.638;7.528;2023-02-14T06:46:16;102892.41;;;-0.27;100.00
55010;BME280;40903;51.638;7.528;2023-02-14T06:48:42;102896.94;;;-0.28;100.00
55010;BME280;40903;51.638;7.528;2023-02-14T06:51:07;102894.25;;;-0.28;100.00
55010;BME280;40903;51.638;7.528;2023-02-14T06:53:32;102896.06;;;-0.28;100.00
55010;BME280;40903;51.638;7.528;2023-02-14T06:55:58;102889.91;;;-0.29;100.00
55010;BME280;40903;51.638;7.528;2023-02-14T06:58:23;102895.25;;;-0.29;100.00
55010;BME280;40903;51.638;7.528;2023-02-14T07:00:48;102900.44;;;-0.27;100.00
55010;BME280;40903;51.638;7.528;2023-02-14T07:03:14;102901.44;;;-0.28;100.00
55010;BME280;40903;51.638;7.528;2023-02-14T07:05:39;102897.09;;;-0.29;100.00
55010;BME280;40903;51.638;7.528;2023-02-14T07:08:05;102899.44;;;-0.26;100.00
55010;BME280;40903;51.638;7.528;2023-02-14T07:10:31;102906.31;;;-0.24;100.00
55010;BME280;40903;51.638;7.528;2023-02-14T07:12:58;102902.63;;;-0.23;100.00
55010;BME280;40903;51.638;7.528;2023-02-14T07:15:23;102910.31;;;-0.20;100.00
55010;BME280;40903;51.638;7.528;2023-02-14T07:17:48;102901.78;;;-0.15;100.00
55010;BME280;40903;51.638;7.528;2023-02-14T07:20:13;102910.34;;;-0.12;100.00
55010;BME280;40903;51.638;7.528;2023-02-14T07:22:38;102916.19;;;-0.08;100.00
55010;BME280;40903;51.638;7.528;2023-02-14T07:25:04;102908.50;;;-0.03;100.00
55010;BME280;40903;51.638;7.528;2023-02-14T07:27:30;102909.47;;;0.03;100.00
55010;BME280;40903;51.638;7.528;2023-02-14T07:29:55;102910.66;;;0.09;100.00
55010;BME280;40903;51.638;7.528;2023-02-14T07:32:21;102914.50;;;0.14;100.00
55010;BME280;40903;51.638;7.528;2023-02-14T07:34:47;102914.16;;;0.17;100.00
55010;BME280;40903;51.638;7.528;2023-02-14T07:37:12;102911.31;;;0.27;100.00
55010;BME280;40903;51.638;7.528;2023-02-14T07:39:37;102905.28;;;0.33;100.00
55010;BME280;40903;51.638;7.528;2023-02-14T07:42:03;102903.06;;;0.36;100.00
55010;BME280;40903;51.638;7.528;2023-02-14T07:44:28;102899.72;;;0.42;100.00
55010;BME280;40903;51.638;7.528;2023-02-14T07:46:53;102896.34;;;0.48;100.00
55010;BME280;40903;51.638;7.528;2023-02-14T07:49:18;102901.03;;;0.54;100.00
55010;BME280;40903;51.638;7.528;2023-02-14T07:51:44;102903.88;;;0.61;100.00
55010;BME280;40903;51.638;7.528;2023-02-14T07:54:09;102901.31;;;0.67;100.00
55010;BME280;40903;51.638;7.528;2023-02-14T07:56:34;102897.09;;;0.73;100.00
55010;BME280;40903;51.638;7.528;2023-02-14T07:58:59;102898.91;;;0.80;100.00
55010;BME280;40903;51.638;7.528;2023-02-14T08:01:25;102893.69;;;0.87;100.00
55010;BME280;40903;51.638;7.528;2023-02-14T08:03:50;102889.31;;;0.94;100.00
55010;BME280;40903;51.638;7.528;2023-02-14T08:06:19;102887.44;;;1.02;100.00
55010;BME280;40903;51.638;7.528;2023-02-14T08:08:45;102886.34;;;1.11;100.00
55010;BME280;40903;51.638;7.528;2023-02-14T08:11:11;102886.16;;;1.21;100.00
55010;BME280;40903;51.638;7.528;2023-02-14T08:13:56;102884.72;;;1.33;100.00
55010;BME280;40903;51.638;7.528;2023-02-14T08:16:21;102886.00;;;1.45;100.00
55010;BME280;40903;51.638;7.528;2023-02-14T08:18:47;102892.81;;;1.55;100.00
55010;BME280;40903;51.638;7.528;2023-02-14T08:21:12;102900.09;;;1.69;100.00
55010;BME280;40903;51.638;7.528;2023-02-14T08:23:37;102892.28;;;1.82;100.00
55010;BME280;40903;51.638;7.528;2023-02-14T08:26:02;102904.13;;;1.95;100.00
55010;BME280;40903;51.638;7.528;2023-02-14T08:28:28;102897.09;;;2.09;100.00
55010;BME280;40903;51.638;7.528;2023-02-14T08:30:53;102896.28;;;2.23;100.00
55010;BME280;40903;51.638;7.528;2023-02-14T08:33:19;102897.31;;;2.36;100.00
55010;BME280;40903;51.638;7.528;2023-02-14T08:35:44;102895.69;;;2.50;100.00
55010;BME280;40903;51.638;7.528;2023-02-14T08:38:10;102894.66;;;2.65;100.00
55010;BME280;40903;51.638;7.528;2023-02-14T08:40:35;102897.16;;;2.81;100.00
55010;BME280;40903;51.638;7.528;2023-02-14T08:43:01;102890.38;;;3.00;100.00
55010;BME280;40903;51.638;7.528;2023-02-14T08:45:27;102891.00;;;3.16;100.00
55010;BME280;40903;51.638;7.528;2023-02-14T08:47:52;102887.88;;;3.34;100.00
55010;BME280;40903;51.638;7.528;2023-02-14T08:50:17;102885.78;;;3.50;100.00
55010;BME280;40903;51.638;7.528;2023-02-14T08:52:43;102887.38;;;3.66;100.00
55010;BME280;40903;51.638;7.528;2023-02-14T08:55:08;102882.97;;;3.79;100.00
55010;BME280;40903;51.638;7.528;2023-02-14T08:57:34;102886.44;;;3.94;100.00
55010;BME280;40903;51.638;7.528;2023-02-14T08:59:59;102882.19;;;4.06;100.00
55010;BME280;40903;51.638;7.528;2023-02-14T09:02:24;102881.44;;;4.18;100.00
55010;BME280;40903;51.638;7.528;2023-02-14T09:04:49;102881.34;;;4.33;100.00
55010;BME280;40903;51.638;7.528;2023-02-14T09:07:14;102876.03;;;4.46;100.00
55010;BME280;40903;51.638;7.528;2023-02-14T09:09:40;102874.91;;;4.61;100.00
55010;BME280;40903;51.638;7.528;2023-02-14T09:12:06;102872.28;;;4.74;100.00
55010;BME280;40903;51.638;7.528;2023-02-14T09:14:39;102867.56;;;4.89;100.00
55010;BME280;40903;51.638;7.528;2023-02-14T09:17:06;102877.00;;;5.06;100.00
55010;BME280;40903;51.638;7.528;2023-02-14T09:19:32;102867.91;;;5.20;100.00
55010;BME280;40903;51.638;7.528;2023-02-14T09:21:57;102871.28;;;5.35;100.00
55010;BME280;40903;51.638;7.528;2023-02-14T09:24:22;102875.28;;;5.52;100.00
55010;BME280;40903;51.638;7.528;2023-02-14T09:26:48;102873.63;;;5.70;100.00
55010;BME280;40903;51.638;7.528;2023-02-14T09:29:13;102870.59;;;5.86;100.00
55010;BME280;40903;51.638;7.528;2023-02-14T09:31:39;102868.69;;;6.00;100.00
55010;BME280;40903;51.638;7.528;2023-02-14T09:34:05;102867.44;;;6.15;100.00
55010;BME280;40903;51.638;7.528;2023-02-14T09:36:48;102861.81;;;6.30;100.00
55010;BME280;40903;51.638;7.528;2023-02-14T09:39:32;102859.72;;;6.45;100.00
55010;BME280;40903;51.638;7.528;2023-02-14T09:42:09;102856.56;;;6.61;100.00
55010;BME280;40903;51.638;7.528;2023-02-14T09:48:05;102853.94;;;6.98;100.00
55010;BME280;40903;51.638;7.528;2023-02-14T09:50:31;102854.91;;;7.17;100.00
55010;BME280;40903;51.638;7.528;2023-02-14T09:53:05;102857.06;;;7.39;100.00
55010;BME280;40903;51.638;7.528;2023-02-14T09:55:34;102856.97;;;7.59;100.00
55010;BME280;40903;51.638;7.528;2023-02-14T09:58:12;102848.91;;;7.76;100.00
55010;BME280;40903;51.638;7.528;2023-02-14T10:00:41;102845.63;;;7.92;100.00
55010;BME280;40903;51.638;7.528;2023-02-14T10:05:55;102852.25;;;8.27;100.00
55010;BME280;40903;51.638;7.528;2023-02-14T10:08:39;102847.75;;;8.39;96.54
55010;BME280;40903;51.638;7.528;2023-02-14T10:11:08;102845.25;;;8.56;96.93
55010;BME280;40903;51.638;7.528;2023-02-14T10:13:37;102845.72;;;8.71;96.88
55010;BME280;40903;51.638;7.528;2023-02-14T10:16:08;102839.06;;;8.85;95.87
55010;BME280;40903;51.638;7.528;2023-02-14T10:21:27;102842.09;;;9.13;94.41
55010;BME280;40903;51.638;7.528;2023-02-14T10:23:57;102837.53;;;9.25;93.07
55010;BME280;40903;51.638;7.528;2023-02-14T10:26:42;102837.22;;;9.33;88.35
55010;BME280;40903;51.638;7.528;2023-02-14T10:29:12;102841.66;;;9.45;89.02
55010;BME280;40903;51.638;7.528;2023-02-14T10:31:40;102836.81;;;9.59;87.40
55010;BME280;40903;51.638;7.528;2023-02-14T10:34:09;102834.28;;;9.75;88.49
55010;BME280;40903;51.638;7.528;2023-02-14T10:41:59;102837.09;;;10.09;83.03
55010;BME280;40903;51.638;7.528;2023-02-14T10:55:21;102817.16;;;10.55;79.97
55010;BME280;40903;51.638;7.528;2023-02-14T10:57:50;102824.72;;;10.64;76.23
55010;BME280;40903;51.638;7.528;2023-02-14T11:02:46;102815.34;;;10.83;76.28
55010;BME280;40903;51.638;7.528;2023-02-14T11:05:56;102819.69;;;10.96;76.21
55010;BME280;40903;51.638;7.528;2023-02-14T11:08:37;102810.97;;;11.10;77.01
55010;BME280;40903;51.638;7.528;2023-02-14T11:10:54;102813.34;;;11.18;73.07
55010;BME280;40903;51.638;7.528;2023-02-14T11:13:35;102814.50;;;11.22;72.79
55010;BME280;40903;51.638;7.528;2023-02-14T11:16:02;102808.88;;;11.29;73.67
55010;BME280;40903;51.638;7.528;2023-02-14T11:18:28;102802.47;;;11.35;73.67
55010;BME280;40903;51.638;7.528;2023-02-14T11:23:31;102789.47;;;11.42;71.04
55010;BME280;40903;51.638;7.528;2023-02-14T11:25:57;102784.66;;;11.49;74.20
55010;BME280;40903;51.638;7.528;2023-02-14T11:28:23;102780.13;;;11.54;73.53
55010;BME280;40903;51.638;7.528;2023-02-14T11:30:49;102775.13;;;11.63;72.58
55010;BME280;40903;51.638;7.528;2023-02-14T11:33:22;102770.00;;;11.66;71.12
55010;BME280;40903;51.638;7.528;2023-02-14T11:35:52;102762.47;;;11.73;71.74
55010;BME280;40903;51.638;7.528;2023-02-14T11:38:31;102752.41;;;11.78;71.91
55010;BME280;40903;51.638;7.528;2023-02-14T11:40:59;102752.25;;;11.85;71.59
55010;BME280;40903;51.638;7.528;2023-02-14T11:43:36;102746.38;;;11.93;71.50
55010;BME280;40903;51.638;7.528;2023-02-14T11:49:22;102735.91;;;12.06;71.23
55010;BME280;40903;51.638;7.528;2023-02-14T11:51:48;102742.63;;;12.15;70.76
55010;BME280;40903;51.638;7.528;2023-02-14T11:56:50;102732.41;;;12.27;67.72
55010;BME280;40903;51.638;7.528;2023-02-14T12:01:46;102721.41;;;12.44;69.25
55010;BME280;40903;51.638;7.528;2023-02-14T12:04:12;102722.88;;;12.51;69.31
55010;BME280;40903;51.638;7.528;2023-02-14T12:06:39;102724.91;;;12.61;67.80
55010;BME280;40903;51.638;7.528;2023-02-14T12:09:11;102715.69;;;12.67;68.25
55010;BME280;40903;51.638;7.528;2023-02-14T12:11:36;102714.66;;;12.73;66.95
55010;BME280;40903;51.638;7.528;2023-02-14T12:14:01;102714.97;;;12.76;66.69
55010;BME280;40903;51.638;7.528;2023-02-14T12:18:58;102713.69;;;12.84;66.03
55010;BME280;40903;51.638;7.528;2023-02-14T12:21:27;102706.28;;;12.84;64.55
55010;BME280;40903;51.638;7.528;2023-02-14T12:24:00;102706.94;;;12.91;65.34
55010;BME280;40903;51.638;7.528;2023-02-14T12:26:39;102705.34;;;12.95;64.52
55010;BME280;40903;51.638;7.528;2023-02-14T12:31:55;102693.47;;;13.11;65.41
55010;BME280;40903;51.638;7.528;2023-02-14T12:34:23;102700.66;;;13.17;64.86
55010;BME280;40903;51.638;7.528;2023-02-14T12:36:52;102703.44;;;13.22;63.39
55010;BME280;40903;51.638;7.528;2023-02-14T12:42:05;102690.94;;;13.31;64.51
55010;BME280;40903;51.638;7.528;2023-02-14T12:47:03;102685.53;;;13.41;63.39
55010;BME280;40903;51.638;7.528;2023-02-14T12:52:15;102678.16;;;13.47;62.47
55010;BME280;40903;51.638;7.528;2023-02-14T12:54:52;102669.72;;;13.53;62.64
55010;BME280;40903;51.638;7.528;2023-02-14T13:12:37;102648.00;;;13.83;60.57
55010;BME280;40903;51.638;7.528;2023-02-14T13:17:52;102649.41;;;13.90;61.34
55010;BME280;40903;51.638;7.528;2023-02-14T13:20:39;102641.50;;;13.94;59.61
55010;BME280;40903;51.638;7.528;2023-02-14T13:23:14;102646.19;;;13.98;59.77
55010;BME280;40903;51.638;7.528;2023-02-14T13:25:42;102638.22;;;14.02;59.24
55010;BME280;40903;51.638;7.528;2023-02-14T13:28:13;102633.34;;;14.09;58.83
55010;BME280;40903;51.638;7.528;2023-02-14T13:30:39;102627.88;;;14.14;59.69
55010;BME280;40903;51.638;7.528;2023-02-14T13:33:08;102627.09;;;14.18;58.90
55010;BME280;40903;51.638;7.528;2023-02-14T13:35:38;102617.53;;;14.21;59.60
55010;BME280;40903;51.638;7.528;2023-02-14T13:38:05;102620.28;;;14.21;59.66
55010;BME280;40903;51.638;7.528;2023-02-14T13:40:31;102619.44;;;14.20;58.38
55010;BME280;40903;51.638;7.528;2023-02-14T13:42:59;102616.69;;;14.20;58.83
55010;BME280;40903;51.638;7.528;2023-02-14T13:48:10;102615.03;;;14.24;58.75
55010;BME280;40903;51.638;7.528;2023-02-14T13:50:37;102602.72;;;14.27;58.65
55010;BME280;40903;51.638;7.528;2023-02-14T13:53:02;102603.56;;;14.27;57.83
55010;BME280;40903;51.638;7.528;2023-02-14T13:55:31;102600.22;;;14.25;57.72
55010;BME280;40903;51.638;7.528;2023-02-14T13:58:02;102594.47;;;14.27;57.15
55010;BME280;40903;51.638;7.528;2023-02-14T14:00:38;102596.69;;;14.30;58.15
55010;BME280;40903;51.638;7.528;2023-02-14T14:03:04;102585.16;;;14.33;59.35
55010;BME280;40903;51.638;7.528;2023-02-14T14:10:44;102575.81;;;14.34;57.26
55010;BME280;40903;51.638;7.528;2023-02-14T14:13:28;102576.66;;;14.34;58.75
55010;BME280;40903;51.638;7.528;2023-02-14T14:18:39;102578.03;;;14.32;58.02
55010;BME280;40903;51.638;7.528;2023-02-14T14:21:13;102571.44;;;14.28;58.38
55010;BME280;40903;51.638;7.528;2023-02-14T14:23:38;102570.88;;;14.26;57.49
55010;BME280;40903;51.638;7.528;2023-02-14T14:26:27;102568.69;;;14.23;57.15
55010;BME280;40903;51.638;7.528;2023-02-14T14:28:49;102566.47;;;14.20;58.32
55010;BME280;40903;51.638;7.528;2023-02-14T14:31:14;102565.34;;;14.16;58.20
55010;BME280;40903;51.638;7.528;2023-02-14T14:33:43;102568.06;;;14.11;58.23
55010;BME280;40903;51.638;7.528;2023-02-14T14:36:09;102562.81;;;14.04;58.91